Time;durP1;ratioP1;P1;durP2;ratioP2;P2;SDS_P1;SDS_P2;PMS_P1;PMS_P2;Temp;Humidity;BMP_temperature;BMP_pressure;BME280_temperature;BME280_humidity;BME280_pressure;Samples;Min_cycle;Max_cycle;Signal;HPM_P1;HPM_P2
2023/12/10 00:02:03;;;;;;;39.05;4.55;;;;;;;8.21;100.00;99645.16;5010054;28;20044;-75
2023/12/10 00:04:28;;;;;;;45.85;5.28;;;;;;;8.34;100.00;99644.63;5014971;28;20065;-76
2023/12/10 00:06:54;;;;;;;37.95;4.82;;;;;;;8.30;100.00;99638.97;5011032;28;20586;-75
2023/12/10 00:09:19;;;;;;;39.28;6.28;;;;;;;8.30;100.00;99641.56;5010741;28;20030;-75
2023/12/10 00:11:45;;;;;;;41.53;6.47;;;;;;;8.33;100.00;99640.44;5012524;28;20041;-74
2023/12/10 00:14:10;;;;;;;32.88;4.18;;;;;;;8.27;100.00;99644.50;4995171;28;20539;-75
2023/12/10 00:16:36;;;;;;;32.92;4.53;;;;;;;8.34;100.00;99642.84;5010077;28;20039;-78
2023/12/10 00:19:01;;;;;;;38.15;5.10;;;;;;;8.24;100.00;99638.88;5019255;28;20037;-75
2023/12/10 00:21:26;;;;;;;43.80;5.57;;;;;;;8.16;100.00;99630.19;5005972;28;20056;-75
2023/12/10 00:23:52;;;;;;;34.15;4.75;;;;;;;8.17;100.00;99630.97;5007808;28;20034;-76
2023/12/10 00:26:17;;;;;;;28.58;4.35;;;;;;;8.09;100.00;99665.38;4998154;28;20038;-76
2023/12/10 00:28:43;;;;;;;39.40;4.82;;;;;;;8.12;100.00;99646.19;4991973;28;20038;-76
2023/12/10 00:31:09;;;;;;;37.55;4.32;;;;;;;8.25;100.00;99669.69;4991515;28;20022;-75
2023/12/10 00:33:34;;;;;;;29.98;3.38;;;;;;;8.16;100.00;99645.66;5008141;28;20228;-76
2023/12/10 00:36:00;;;;;;;36.33;4.25;;;;;;;8.26;100.00;99660.97;5011393;28;20065;-75
2023/12/10 00:38:25;;;;;;;37.90;4.70;;;;;;;8.24;100.00;99662.91;5006508;28;20048;-76
2023/12/10 00:40:51;;;;;;;35.70;5.22;;;;;;;8.18;100.00;99661.00;5009597;28;20045;-76
2023/12/10 00:43:16;;;;;;;39.92;3.80;;;;;;;8.37;100.00;99667.53;5006907;28;20088;-75
2023/12/10 00:45:42;;;;;;;36.42;4.60;;;;;;;8.37;100.00;99659.78;5012576;28;20030;-74
2023/12/10 00:48:08;;;;;;;35.40;5.13;;;;;;;8.42;100.00;99659.28;5013844;28;20452;-75
2023/12/10 00:50:34;;;;;;;50.33;5.70;;;;;;;8.36;100.00;99661.56;5005653;28;20057;-76
2023/12/10 00:53:02;;;;;;;39.90;4.68;;;;;;;8.28;100.00;99663.38;5007671;28;20415;-76
2023/12/10 00:55:28;;;;;;;33.08;4.47;;;;;;;8.25;100.00;99667.13;5012064;28;20033;-76
2023/12/10 00:57:53;;;;;;;39.83;4.70;;;;;;;8.26;100.00;99678.25;5010532;28;20180;-76
2023/12/10 01:00:19;;;;;;;42.67;4.57;;;;;;;8.29;99.94;99691.63;5005800;28;20038;-75
2023/12/10 01:02:45;;;;;;;31.42;4.38;;;;;;;8.35;99.43;99675.44;5012162;28;20042;-75
2023/12/10 01:05:11;;;;;;;40.90;4.40;;;;;;;8.47;98.51;99690.59;5005490;28;20068;-76
2023/12/10 01:07:36;;;;;;;45.22;4.70;;;;;;;8.54;97.69;99694.13;5010797;28;20025;-76
2023/12/10 01:10:05;;;;;;;48.10;6.53;;;;;;;8.41;98.07;99702.38;4990891;28;20037;-76
2023/12/10 01:12:35;;;;;;;36.38;4.40;;;;;;;8.50;98.06;99708.34;5007442;28;20093;-76
2023/12/10 01:15:02;;;;;;;40.10;4.40;;;;;;;8.47;98.04;99717.22;5002967;28;20489;-75
2023/12/10 01:17:28;;;;;;;40.63;5.60;;;;;;;8.39;98.46;99723.22;5016045;28;20041;-76
2023/12/10 01:19:53;;;;;;;40.30;4.90;;;;;;;8.45;98.78;99728.72;5007565;28;20025;-76
2023/12/10 01:22:18;;;;;;;40.95;5.68;;;;;;;8.54;97.85;99735.47;5005865;28;21128;-73
2023/12/10 01:24:45;;;;;;;42.25;5.25;;;;;;;8.49;97.41;99707.53;5011375;28;20416;-76
2023/12/10 01:27:11;;;;;;;34.17;4.28;;;;;;;8.44;98.02;99729.69;5010195;28;20831;-75
2023/12/10 01:29:36;;;;;;;40.35;5.10;;;;;;;8.44;97.71;99740.84;5025811;28;20037;-76
2023/12/10 01:32:02;;;;;;;38.38;5.07;;;;;;;8.52;97.01;99745.16;5014556;28;20041;-76
2023/12/10 01:34:27;;;;;;;45.83;7.72;;;;;;;8.48;97.92;99751.66;5016183;28;20493;-76
2023/12/10 01:36:53;;;;;;;42.30;5.00;;;;;;;8.57;96.78;99751.44;5017637;28;20038;-75
2023/12/10 01:39:19;;;;;;;33.22;4.63;;;;;;;8.42;97.36;99741.97;5017020;28;20053;-75
2023/12/10 01:41:45;;;;;;;41.78;5.05;;;;;;;8.50;96.50;99757.44;5010574;28;20625;-76
2023/12/10 01:44:12;;;;;;;39.47;5.18;;;;;;;8.56;96.37;99754.97;5014173;28;20112;-76
2023/12/10 01:46:37;;;;;;;37.85;3.88;;;;;;;8.47;96.08;99765.53;5015816;28;20029;-75
2023/12/10 01:49:07;;;;;;;32.88;4.63;;;;;;;8.47;96.44;99761.16;5009558;28;20038;-77
2023/12/10 01:51:34;;;;;;;30.98;4.57;;;;;;;8.46;96.64;99763.94;5010965;28;20073;-76
2023/12/10 01:53:59;;;;;;;37.67;4.35;;;;;;;8.51;95.60;99767.63;5019985;28;20055;-76
2023/12/10 01:56:25;;;;;;;33.13;3.67;;;;;;;8.55;95.25;99773.22;5012636;28;20042;-75
2023/12/10 01:58:51;;;;;;;37.08;5.13;;;;;;;8.53;95.66;99768.25;5012248;28;20547;-76
2023/12/10 02:01:18;;;;;;;32.25;4.90;;;;;;;8.51;94.66;99770.22;5012049;28;20084;-76
2023/12/10 02:03:45;;;;;;;35.22;3.58;;;;;;;8.49;94.19;99772.13;5009095;28;20061;-75
2023/12/10 02:06:10;;;;;;;22.15;3.75;;;;;;;8.42;96.19;99775.53;5008396;28;20099;-75
2023/12/10 02:08:58;;;;;;;37.85;4.70;;;;;;;8.42;95.50;99785.88;5005516;28;20033;-75
2023/12/10 02:11:23;;;;;;;30.33;3.83;;;;;;;8.45;94.89;99775.22;5010440;28;20050;-76
2023/12/10 02:13:49;;;;;;;25.40;2.85;;;;;;;8.47;94.87;99776.66;5013228;28;20084;-75
2023/12/10 02:16:15;;;;;;;37.65;3.90;;;;;;;8.48;93.99;99775.69;5014234;28;20037;-76
2023/12/10 02:18:40;;;;;;;34.90;3.83;;;;;;;8.49;94.57;99790.22;5011656;28;20444;-76
2023/12/10 02:21:07;;;;;;;28.55;3.78;;;;;;;8.48;94.75;99803.31;5008010;28;20038;-74
2023/12/10 02:23:49;;;;;;;28.63;4.03;;;;;;;8.52;92.39;99797.63;5012046;28;20034;-75
2023/12/10 02:26:15;;;;;;;31.03;3.77;;;;;;;8.52;93.12;99804.59;5013946;28;20034;-75
2023/12/10 02:28:41;;;;;;;33.75;5.25;;;;;;;8.43;92.95;99815.91;5014766;28;20472;-74
2023/12/10 02:31:06;;;;;;;21.73;2.97;;;;;;;8.54;90.99;99807.81;5017408;28;20038;-76
2023/12/10 02:33:32;;;;;;;29.77;3.60;;;;;;;8.45;91.47;99806.22;5016771;28;20022;-76
2023/12/10 02:35:57;;;;;;;37.80;3.67;;;;;;;8.47;91.28;99809.44;5005212;28;20084;-75
2023/12/10 02:38:23;;;;;;;29.88;3.20;;;;;;;8.39;91.86;99813.63;5015213;28;20036;-75
2023/12/10 02:40:49;;;;;;;27.70;3.13;;;;;;;8.48;90.45;99809.28;4994354;28;20516;-75
2023/12/10 02:43:19;;;;;;;27.70;3.05;;;;;;;8.47;89.99;99827.53;5015623;28;20100;-75
2023/12/10 02:45:46;;;;;;;25.17;4.43;;;;;;;8.53;89.05;99807.00;5006386;28;20124;-75
2023/12/10 02:48:12;;;;;;;30.15;3.10;;;;;;;8.55;88.44;99822.31;5012563;28;20068;-76
2023/12/10 02:50:37;;;;;;;27.10;3.15;;;;;;;8.50;89.39;99817.66;5010585;28;20440;-74
2023/12/10 02:53:02;;;;;;;20.08;3.08;;;;;;;8.49;89.59;99834.13;5012834;28;20037;-76
2023/12/10 02:55:28;;;;;;;25.00;3.40;;;;;;;8.45;90.65;99832.84;5004865;28;20088;-76
2023/12/10 02:57:53;;;;;;;20.25;3.28;;;;;;;8.42;92.08;99843.53;4996450;28;20034;-75
2023/12/10 03:00:19;;;;;;;26.25;3.67;;;;;;;8.25;92.91;99847.06;4991956;28;20029;-76
2023/12/10 03:02:44;;;;;;;25.95;3.10;;;;;;;8.32;92.85;99842.88;5008242;28;20568;-74
2023/12/10 03:05:10;;;;;;;23.98;3.38;;;;;;;8.24;94.04;99848.06;5011864;28;20037;-75
2023/12/10 03:07:35;;;;;;;26.27;3.25;;;;;;;8.21;94.46;99859.50;5010217;28;20032;-75
2023/12/10 03:10:01;;;;;;;24.25;2.80;;;;;;;8.17;94.25;99860.81;5009270;28;20034;-75
2023/12/10 03:12:26;;;;;;;21.48;2.42;;;;;;;8.13;95.18;99850.00;5009587;28;20556;-74
2023/12/10 03:14:52;;;;;;;26.70;3.72;;;;;;;8.09;95.70;99871.94;5014001;28;20030;-75
2023/12/10 03:17:17;;;;;;;30.13;3.10;;;;;;;8.03;97.28;99857.13;5012984;28;20033;-76
2023/12/10 03:19:44;;;;;;;20.00;2.85;;;;;;;8.00;99.29;99862.59;5014439;28;20084;-74
2023/12/10 03:22:10;;;;;;;29.98;3.78;;;;;;;7.93;100.00;99867.59;5009242;28;20029;-76
2023/12/10 03:24:35;;;;;;;24.40;3.13;;;;;;;7.82;100.00;99849.84;5008175;28;20076;-75
2023/12/10 03:27:01;;;;;;;32.63;3.78;;;;;;;7.78;100.00;99856.31;4993993;28;20044;-76
2023/12/10 03:29:26;;;;;;;23.40;3.28;;;;;;;7.72;100.00;99859.50;5011054;28;20456;-75
2023/12/10 03:31:52;;;;;;;33.08;3.80;;;;;;;7.71;100.00;99847.59;5012052;28;20038;-75
2023/12/10 03:34:17;;;;;;;23.92;3.20;;;;;;;7.70;100.00;99862.25;5007433;28;20120;-76
2023/12/10 03:36:43;;;;;;;30.75;4.10;;;;;;;7.65;100.00;99864.53;5011506;28;20044;-75
2023/12/10 03:39:08;;;;;;;20.63;3.78;;;;;;;7.66;100.00;99857.59;5010529;28;20037;-75
2023/12/10 03:41:34;;;;;;;22.23;2.83;;;;;;;7.67;100.00;99859.22;4992045;28;20045;-76
2023/12/10 03:43:59;;;;;;;19.25;2.95;;;;;;;7.60;100.00;99859.81;5012005;28;20038;-75
2023/12/10 03:46:24;;;;;;;27.65;3.53;;;;;;;7.59;100.00;99859.97;5015039;28;20042;-75
2023/12/10 03:48:51;;;;;;;23.77;3.22;;;;;;;7.65;100.00;99871.44;5011157;28;20101;-75
2023/12/10 03:51:17;;;;;;;29.00;4.47;;;;;;;7.59;100.00;99870.28;5012472;28;20180;-74
2023/12/10 03:53:42;;;;;;;31.10;3.58;;;;;;;7.57;100.00;99872.22;4995674;28;20109;-76
2023/12/10 03:56:09;;;;;;;24.00;2.97;;;;;;;7.56;100.00;99881.75;5007737;28;20045;-75
2023/12/10 03:58:35;;;;;;;28.05;3.67;;;;;;;7.57;100.00;99883.38;4992159;28;20037;-76
2023/12/10 04:01:01;;;;;;;22.90;2.92;;;;;;;7.48;100.00;99876.59;5014416;28;20039;-76
2023/12/10 04:03:26;;;;;;;26.65;3.45;;;;;;;7.48;100.00;99871.44;4995166;28;20033;-75
2023/12/10 04:05:52;;;;;;;22.08;3.60;;;;;;;7.57;100.00;99885.13;5010109;28;20034;-76
2023/12/10 04:08:17;;;;;;;30.13;4.70;;;;;;;7.55;100.00;99887.06;5007041;28;20032;-73
2023/12/10 04:10:42;;;;;;;21.45;3.10;;;;;;;7.50;100.00;99903.03;4992220;28;20034;-75
2023/12/10 04:13:08;;;;;;;27.33;3.75;;;;;;;7.55;100.00;99890.47;5015251;28;20029;-76
2023/12/10 04:15:33;;;;;;;37.50;3.30;;;;;;;7.51;100.00;99886.56;5007993;28;20041;-75
2023/12/10 04:18:00;;;;;;;31.30;4.07;;;;;;;7.50;100.00;99868.69;5014196;28;20432;-76
2023/12/10 04:20:25;;;;;;;22.45;3.15;;;;;;;7.47;100.00;99893.03;5008885;28;20053;-75
2023/12/10 04:22:51;;;;;;;38.67;5.15;;;;;;;7.55;100.00;99890.47;5011856;28;20392;-75
2023/12/10 04:25:16;;;;;;;33.42;4.22;;;;;;;7.55;100.00;99903.38;5010062;28;20038;-75
2023/12/10 04:27:42;;;;;;;31.63;3.83;;;;;;;7.64;100.00;99903.38;5007969;28;20038;-75
2023/12/10 04:30:08;;;;;;;20.88;2.33;;;;;;;7.71;98.35;99889.69;5013653;28;20180;-77
2023/12/10 04:32:34;;;;;;;25.58;3.28;;;;;;;7.73;98.19;99903.22;5008110;28;20166;-75
2023/12/10 04:34:59;;;;;;;23.88;3.05;;;;;;;7.73;98.52;99910.16;5009924;28;20041;-75
2023/12/10 04:37:25;;;;;;;30.55;3.53;;;;;;;7.67;98.35;99905.66;5008494;28;20402;-76
2023/12/10 04:39:50;;;;;;;28.20;3.83;;;;;;;7.85;97.64;99908.88;5010697;28;20045;-75
2023/12/10 04:42:15;;;;;;;29.75;2.65;;;;;;;7.75;96.89;99914.19;5009389;28;20494;-75
2023/12/10 04:44:42;;;;;;;27.20;2.92;;;;;;;7.79;96.27;99906.94;5010939;28;20396;-75
2023/12/10 04:47:07;;;;;;;27.08;2.88;;;;;;;7.87;95.91;99906.94;5003710;28;20088;-75
2023/12/10 04:49:33;;;;;;;24.60;3.25;;;;;;;7.84;95.73;99927.13;5026530;28;20480;-73
2023/12/10 04:51:58;;;;;;;23.10;2.70;;;;;;;7.91;95.19;99915.19;4995841;28;20061;-74
2023/12/10 04:54:23;;;;;;;37.25;4.15;;;;;;;7.91;94.78;99935.84;5008139;28;20103;-75
2023/12/10 04:56:49;;;;;;;28.88;3.85;;;;;;;7.89;94.63;99922.28;5015057;28;20041;-74
2023/12/10 04:59:14;;;;;;;24.83;2.92;;;;;;;7.87;94.55;99931.97;5010622;28;20022;-75
2023/12/10 05:01:40;;;;;;;28.10;2.88;;;;;;;7.94;93.28;99948.44;5012644;28;20274;-75
2023/12/10 05:04:05;;;;;;;26.70;3.38;;;;;;;7.99;92.88;99953.94;5008115;28;20046;-75
2023/12/10 05:06:32;;;;;;;20.17;2.92;;;;;;;8.10;92.08;99945.03;4993800;28;20038;-74
2023/12/10 05:08:58;;;;;;;28.83;2.95;;;;;;;8.04;91.66;99941.34;5010211;28;20033;-76
2023/12/10 05:11:23;;;;;;;18.85;2.80;;;;;;;8.11;91.46;99952.63;5014366;28;20488;-74
2023/12/10 05:13:49;;;;;;;26.92;3.63;;;;;;;8.02;92.04;99950.22;4997515;28;20030;-74
2023/12/10 05:16:14;;;;;;;22.50;3.20;;;;;;;8.09;91.66;99953.78;5011585;28;20042;-74
2023/12/10 05:18:39;;;;;;;24.92;3.05;;;;;;;8.11;90.96;99950.06;5006949;28;20072;-75
2023/12/10 05:21:05;;;;;;;23.65;2.92;;;;;;;8.04;90.96;99954.25;5011507;28;20091;-75
2023/12/10 05:23:31;;;;;;;26.35;3.35;;;;;;;8.14;89.65;99957.50;5008185;28;20040;-74
2023/12/10 05:25:56;;;;;;;32.20;3.45;;;;;;;8.08;90.38;99957.31;5006902;28;20030;-76
2023/12/10 05:28:22;;;;;;;25.45;3.67;;;;;;;8.16;89.63;99955.56;5007591;28;20440;-75
2023/12/10 05:30:47;;;;;;;24.02;3.17;;;;;;;8.15;89.27;99948.75;4995532;28;20450;-75
2023/12/10 05:33:13;;;;;;;26.92;3.25;;;;;;;8.08;89.45;99946.97;5007981;28;20034;-74
2023/12/10 05:35:38;;;;;;;29.27;3.75;;;;;;;8.17;88.07;99952.03;5006990;28;20038;-75
2023/12/10 05:38:06;;;;;;;18.02;3.30;;;;;;;8.20;87.57;99950.88;4993784;28;20473;-74
2023/12/10 05:40:31;;;;;;;27.83;4.55;;;;;;;8.26;87.00;99957.97;5010534;28;20045;-76
2023/12/10 05:42:57;;;;;;;22.15;2.75;;;;;;;8.32;85.83;99967.66;4991983;28;20038;-75
2023/12/10 05:45:22;;;;;;;11.77;2.33;;;;;;;8.24;86.81;99966.88;5003660;28;20034;-76
2023/12/10 05:47:47;;;;;;;37.22;4.95;;;;;;;8.31;86.36;99966.06;5012165;28;20029;-74
2023/12/10 05:50:13;;;;;;;19.40;3.20;;;;;;;8.24;86.01;99980.56;4999634;28;20041;-76
2023/12/10 05:52:38;;;;;;;18.33;3.25;;;;;;;8.37;85.44;99983.47;5006354;28;20085;-76
2023/12/10 05:55:04;;;;;;;24.42;3.10;;;;;;;8.35;84.95;99985.44;5010510;28;20092;-75
2023/12/10 05:57:30;;;;;;;31.17;2.95;;;;;;;8.33;85.91;99991.72;5006080;28;20259;-75
2023/12/10 05:59:56;;;;;;;26.65;2.90;;;;;;;8.34;85.29;100014.00;5005771;28;20057;-75
2023/12/10 06:02:22;;;;;;;20.65;2.72;;;;;;;8.32;85.85;99996.06;5008851;28;20030;-76
2023/12/10 06:04:47;;;;;;;20.80;2.63;;;;;;;8.31;85.63;100019.50;5008746;28;20040;-75
2023/12/10 06:07:13;;;;;;;27.25;5.43;;;;;;;8.34;85.51;100024.31;4993219;28;20030;-74
2023/12/10 06:09:38;;;;;;;26.92;3.05;;;;;;;8.31;85.94;100017.72;5013281;28;20030;-73
2023/12/10 06:12:04;;;;;;;32.28;5.65;;;;;;;8.38;85.08;100002.38;5011907;28;20789;-75
2023/12/10 06:14:29;;;;;;;22.85;3.63;;;;;;;8.29;84.93;100004.16;5007001;28;20392;-75
2023/12/10 06:16:55;;;;;;;23.85;4.20;;;;;;;8.34;86.04;100012.25;5008200;28;20042;-73
2023/12/10 06:19:20;;;;;;;35.47;6.30;;;;;;;8.33;85.90;100018.38;5013353;28;20022;-74
2023/12/10 06:21:46;;;;;;;27.65;4.72;;;;;;;8.31;86.17;100001.41;5011100;28;20049;-76
2023/12/10 06:24:12;;;;;;;30.15;6.32;;;;;;;8.30;86.40;100044.50;5011957;28;20034;-75
2023/12/10 06:26:37;;;;;;;39.97;8.13;;;;;;;8.34;86.14;100045.00;5009103;28;20042;-75
2023/12/10 06:29:02;;;;;;;52.75;16.38;;;;;;;8.34;86.00;100040.66;5016105;28;20038;-73
2023/12/10 06:31:28;;;;;;;72.38;23.50;;;;;;;8.26;86.20;100043.22;5012970;28;20037;-74
2023/12/10 06:33:53;;;;;;;73.40;21.33;;;;;;;8.21;87.22;100031.75;5008878;28;20089;-74
2023/12/10 06:36:19;;;;;;;96.97;34.80;;;;;;;8.28;86.22;100068.88;5014246;28;20041;-74
2023/12/10 06:38:45;;;;;;;34.60;10.75;;;;;;;8.26;86.51;100071.63;5010873;28;20128;-74
2023/12/10 06:41:11;;;;;;;63.95;21.00;;;;;;;8.31;86.70;100081.50;5012440;28;20388;-75
2023/12/10 06:43:36;;;;;;;48.78;16.80;;;;;;;8.33;86.70;100100.22;5014879;28;20496;-76
2023/12/10 06:46:02;;;;;;;31.38;7.32;;;;;;;8.31;85.75;100102.97;5004735;28;20100;-74
2023/12/10 06:48:27;;;;;;;33.50;4.22;;;;;;;8.27;85.94;100099.09;5016529;28;20030;-75
2023/12/10 06:50:53;;;;;;;30.50;5.13;;;;;;;8.32;85.31;100119.25;5011562;28;20034;-74
2023/12/10 06:53:18;;;;;;;28.10;4.05;;;;;;;8.37;86.25;100114.44;5018543;28;20096;-74
2023/12/10 06:55:44;;;;;;;24.95;2.63;;;;;;;8.35;85.78;100130.09;5009910;28;20169;-74
2023/12/10 06:58:10;;;;;;;21.88;2.95;;;;;;;8.37;85.88;100140.28;5016964;28;20038;-74
2023/12/10 07:00:35;;;;;;;24.15;2.85;;;;;;;8.33;86.59;100138.97;5007911;28;20041;-74
2023/12/10 07:03:01;;;;;;;28.42;4.30;;;;;;;8.27;86.63;100152.50;5010219;28;20026;-74
2023/12/10 07:05:26;;;;;;;19.63;2.97;;;;;;;8.36;86.01;100136.88;5011688;28;20037;-74
2023/12/10 07:07:52;;;;;;;36.92;4.55;;;;;;;8.27;87.30;100143.00;5010988;28;20394;-73
2023/12/10 07:10:17;;;;;;;28.20;2.85;;;;;;;8.31;87.03;100146.88;5011156;28;20756;-75
2023/12/10 07:12:43;;;;;;;24.65;3.63;;;;;;;8.33;86.46;100157.84;5011152;28;20038;-77
2023/12/10 07:15:08;;;;;;;38.38;3.08;;;;;;;8.34;87.05;100163.81;5014036;28;20062;-74
2023/12/10 07:17:36;;;;;;;30.00;3.15;;;;;;;8.36;87.23;100159.31;5016813;28;20037;-74
2023/12/10 07:20:01;;;;;;;24.35;2.70;;;;;;;8.31;86.67;100162.38;5011357;28;20448;-76
2023/12/10 07:22:27;;;;;;;28.17;3.22;;;;;;;8.29;87.80;100172.06;5011284;28;20109;-75
2023/12/10 07:24:52;;;;;;;28.95;2.70;;;;;;;8.35;86.79;100186.94;5011289;28;20041;-76
2023/12/10 07:27:18;;;;;;;23.13;2.38;;;;;;;8.31;87.19;100200.31;4997113;28;20061;-75
2023/12/10 07:29:43;;;;;;;27.83;2.83;;;;;;;8.35;87.34;100201.63;5007466;28;20030;-74
2023/12/10 07:32:09;;;;;;;35.83;4.70;;;;;;;8.41;87.10;100195.81;5030269;28;20096;-73
2023/12/10 07:34:34;;;;;;;27.52;3.42;;;;;;;8.37;87.39;100204.84;5009062;28;20029;-75
2023/12/10 07:36:59;;;;;;;24.73;2.35;;;;;;;8.32;87.80;100207.09;5013014;28;20053;-74
2023/12/10 07:39:25;;;;;;;34.80;4.97;;;;;;;8.21;88.84;100215.91;4998552;28;20038;-74
2023/12/10 07:41:50;;;;;;;30.98;7.15;;;;;;;8.31;88.00;100214.03;4996041;28;20038;-74
2023/12/10 07:44:16;;;;;;;34.65;8.10;;;;;;;8.33;88.42;100225.03;5011940;28;20037;-73
2023/12/10 07:46:42;;;;;;;19.08;3.67;;;;;;;8.35;87.79;100225.69;5009577;28;20491;-74
2023/12/10 07:49:07;;;;;;;31.23;4.55;;;;;;;8.29;87.76;100234.06;5014013;28;20083;-75
2023/12/10 07:51:32;;;;;;;37.47;10.00;;;;;;;8.29;88.16;100234.06;5012725;28;20034;-75
2023/12/10 07:53:58;;;;;;;24.45;5.95;;;;;;;8.32;87.74;100238.91;5010206;28;20033;-72
2023/12/10 07:56:23;;;;;;;25.98;3.70;;;;;;;8.38;87.03;100252.97;4997812;28;20512;-74
2023/12/10 07:58:49;;;;;;;29.83;4.22;;;;;;;8.32;87.69;100249.22;5007671;28;20044;-74
2023/12/10 08:01:14;;;;;;;20.92;2.67;;;;;;;8.33;87.95;100271.53;4994984;28;20038;-75
2023/12/10 08:03:40;;;;;;;22.73;3.75;;;;;;;8.37;87.96;100287.53;4993631;28;20045;-72
2023/12/10 08:06:05;;;;;;;22.38;4.03;;;;;;;8.31;88.61;100278.63;5009899;28;20034;-74
2023/12/10 08:08:31;;;;;;;29.90;5.22;;;;;;;8.28;88.86;100285.88;5014264;28;20045;-74
2023/12/10 08:10:56;;;;;;;39.83;4.13;;;;;;;8.26;88.98;100285.22;5010378;28;20050;-73
2023/12/10 08:13:23;;;;;;;27.48;3.45;;;;;;;8.26;89.44;100283.44;5008439;28;20057;-75
2023/12/10 08:15:48;;;;;;;21.67;3.15;;;;;;;8.27;90.04;100297.97;5007971;28;20121;-73
2023/12/10 08:18:15;;;;;;;37.55;2.83;;;;;;;8.22;89.82;100299.41;5009827;28;20033;-74
2023/12/10 08:20:40;;;;;;;26.40;3.17;;;;;;;8.22;90.10;100305.38;5010734;28;20030;-74
2023/12/10 08:23:06;;;;;;;30.70;2.92;;;;;;;8.24;89.47;100297.47;5013247;28;20029;-74
2023/12/10 08:25:31;;;;;;;24.70;2.70;;;;;;;8.34;89.60;100299.00;4992902;28;20037;-75
2023/12/10 08:27:57;;;;;;;29.05;3.33;;;;;;;8.33;89.88;100304.31;5013710;28;20044;-74
2023/12/10 08:30:22;;;;;;;35.78;3.03;;;;;;;8.33;89.38;100306.91;5011403;28;20440;-73
2023/12/10 08:32:47;;;;;;;30.75;4.05;;;;;;;8.27;90.02;100313.47;5010784;28;20026;-73
2023/12/10 08:35:13;;;;;;;22.80;3.47;;;;;;;8.27;89.70;100308.31;5012273;28;20412;-74
2023/12/10 08:37:38;;;;;;;28.45;3.33;;;;;;;8.28;90.00;100317.66;5011137;28;20041;-73
2023/12/10 08:40:05;;;;;;;31.58;3.90;;;;;;;8.24;90.03;100306.03;5006012;28;20099;-74
2023/12/10 08:42:31;;;;;;;23.52;3.10;;;;;;;8.25;90.45;100304.25;5007286;28;20042;-73
2023/12/10 08:44:59;;;;;;;29.60;2.95;;;;;;;8.29;91.15;100311.56;5009583;28;20049;-75
2023/12/10 08:47:25;;;;;;;27.40;2.95;;;;;;;8.28;90.53;100307.34;5007277;28;20121;-74
2023/12/10 08:49:51;;;;;;;33.75;3.25;;;;;;;8.25;90.63;100317.16;5004863;28;20049;-74
2023/12/10 08:52:16;;;;;;;32.45;5.13;;;;;;;8.27;90.87;100320.41;5011044;28;20033;-75
2023/12/10 08:54:42;;;;;;;44.13;9.57;;;;;;;8.30;90.15;100335.59;5007133;28;20037;-75
2023/12/10 08:57:08;;;;;;;30.02;4.60;;;;;;;8.27;91.18;100336.72;4995023;28;20034;-73
2023/12/10 08:59:33;;;;;;;28.83;6.85;;;;;;;8.25;91.00;100341.25;5016566;28;20040;-75
2023/12/10 09:01:58;;;;;;;30.70;4.90;;;;;;;8.26;91.19;100348.00;4991718;28;20033;-75
2023/12/10 09:04:24;;;;;;;25.20;4.95;;;;;;;8.32;90.72;100347.41;5006333;28;20460;-74
2023/12/10 09:06:49;;;;;;;30.25;3.60;;;;;;;8.33;91.11;100358.56;5016067;28;20048;-74
2023/12/10 09:09:15;;;;;;;27.55;3.70;;;;;;;8.29;91.51;100359.84;4998449;28;20044;-74
2023/12/10 09:11:41;;;;;;;24.40;2.83;;;;;;;8.32;90.75;100377.59;5011986;28;20033;-75
2023/12/10 09:14:07;;;;;;;19.15;3.55;;;;;;;8.31;91.16;100376.78;5015246;28;20612;-74
2023/12/10 09:16:33;;;;;;;35.78;3.78;;;;;;;8.38;91.17;100374.41;5013059;28;20034;-74
2023/12/10 09:18:58;;;;;;;26.27;3.40;;;;;;;8.38;91.01;100385.56;5010558;28;20104;-73
2023/12/10 09:21:24;;;;;;;16.38;3.35;;;;;;;8.39;90.43;100381.19;5009167;28;20025;-74
2023/12/10 09:23:49;;;;;;;25.63;3.13;;;;;;;8.47;90.96;100391.59;5004468;28;20481;-75
2023/12/10 09:26:15;;;;;;;17.65;3.20;;;;;;;8.46;90.07;100397.75;5006285;28;20546;-74
2023/12/10 09:28:40;;;;;;;32.45;3.72;;;;;;;8.45;90.93;100405.66;5004587;28;20033;-73
2023/12/10 09:31:05;;;;;;;38.33;3.85;;;;;;;8.48;90.74;100416.50;4998997;28;20049;-74
2023/12/10 09:33:31;;;;;;;20.73;3.67;;;;;;;8.44;91.45;100417.75;5012684;28;20037;-75
2023/12/10 09:35:56;;;;;;;36.70;6.53;;;;;;;8.46;91.96;100407.28;5013531;28;20512;-75
2023/12/10 09:38:22;;;;;;;29.15;5.60;;;;;;;8.38;91.81;100405.41;5007799;28;20041;-75
2023/12/10 09:40:47;;;;;;;35.45;6.00;;;;;;;8.50;91.60;100413.75;5009202;28;20034;-74
2023/12/10 09:43:13;;;;;;;22.13;4.43;;;;;;;8.48;91.86;100418.28;4994924;28;20037;-74
2023/12/10 09:45:38;;;;;;;26.23;5.97;;;;;;;8.47;92.19;100427.78;4993146;28;20045;-73
2023/12/10 09:48:04;;;;;;;26.42;4.05;;;;;;;8.55;92.04;100427.03;4990318;28;20037;-74
2023/12/10 09:50:32;;;;;;;31.70;6.88;;;;;;;8.54;92.53;100430.59;5008122;28;20034;-75
2023/12/10 09:52:57;;;;;;;40.53;5.55;;;;;;;8.49;92.90;100415.50;5010410;28;20038;-74
2023/12/10 09:55:23;;;;;;;36.58;5.95;;;;;;;8.52;93.17;100417.81;5011123;28;20034;-74
2023/12/10 09:57:48;;;;;;;27.83;4.80;;;;;;;8.58;92.62;100417.19;5018557;28;20038;-74
2023/12/10 10:00:14;;;;;;;39.40;4.13;;;;;;;8.64;92.32;100417.56;5011790;28;20042;-74
2023/12/10 10:02:40;;;;;;;33.60;4.07;;;;;;;8.69;92.50;100416.13;5023130;28;20022;-75
2023/12/10 10:05:09;;;;;;;31.58;4.18;;;;;;;8.71;92.66;100432.31;5009374;28;20511;-74
2023/12/10 10:07:35;;;;;;;30.50;4.28;;;;;;;8.80;91.89;100419.41;5013550;28;20264;-74
2023/12/10 10:10:01;;;;;;;52.00;17.48;;;;;;;8.84;92.09;100423.34;5013147;28;20520;-73
2023/12/10 10:12:30;;;;;;;47.15;13.57;;;;;;;8.89;92.05;100423.66;5016016;28;20034;-73
2023/12/10 10:15:00;;;;;;;23.33;3.95;;;;;;;8.92;92.19;100421.59;5013340;28;20145;-74
2023/12/10 10:17:27;;;;;;;32.85;3.80;;;;;;;8.82;92.47;100415.72;5012979;28;20033;-74
2023/12/10 10:19:54;;;;;;;24.58;4.63;;;;;;;8.92;92.89;100416.41;5003936;28;20026;-75
2023/12/10 10:22:21;;;;;;;16.33;3.13;;;;;;;8.95;93.03;100412.72;5007257;28;20022;-74
2023/12/10 10:24:47;;;;;;;39.20;8.20;;;;;;;8.89;93.88;100397.81;5011055;28;20068;-74
2023/12/10 10:27:12;;;;;;;31.02;4.95;;;;;;;9.13;93.66;100397.91;5012614;28;20022;-74
2023/12/10 10:29:38;;;;;;;26.75;4.07;;;;;;;9.18;92.99;100386.31;5017416;28;20501;-74
2023/12/10 10:32:05;;;;;;;27.05;3.78;;;;;;;9.26;92.17;100394.88;5010025;28;20041;-74
2023/12/10 10:34:30;;;;;;;28.42;3.40;;;;;;;9.30;92.42;100400.56;5014037;28;20038;-74
2023/12/10 10:36:56;;;;;;;40.05;4.63;;;;;;;9.25;92.99;100395.88;5012366;28;20053;-74
2023/12/10 10:39:22;;;;;;;24.23;4.53;;;;;;;9.22;92.97;100393.59;5018850;28;20065;-74
2023/12/10 10:41:49;;;;;;;32.47;3.60;;;;;;;9.24;93.17;100385.66;5014870;28;20145;-75
2023/12/10 10:44:14;;;;;;;30.65;5.10;;;;;;;9.23;94.22;100394.38;5013361;28;20103;-75
2023/12/10 10:46:40;;;;;;;32.20;5.40;;;;;;;9.31;93.32;100381.50;5011953;28;20492;-75
2023/12/10 10:49:06;;;;;;;24.83;4.55;;;;;;;9.48;92.37;100398.66;5019256;28;20053;-75
2023/12/10 10:51:32;;;;;;;26.88;3.63;;;;;;;9.48;92.23;100382.34;5013623;28;20069;-73
2023/12/10 10:54:02;;;;;;;36.67;6.90;;;;;;;9.47;92.15;100386.69;5018717;28;20053;-75
2023/12/10 10:56:27;;;;;;;28.92;5.53;;;;;;;9.53;91.73;100388.66;5014533;28;20030;-74
2023/12/10 10:58:53;;;;;;;39.80;6.20;;;;;;;9.53;92.36;100386.06;5009781;28;20987;-74
2023/12/10 11:01:41;;;;;;;32.33;5.38;;;;;;;9.41;92.72;100383.94;5014309;28;20042;-75
2023/12/10 11:04:14;;;;;;;18.13;3.75;;;;;;;9.50;91.39;100391.56;5010897;28;20063;-74
2023/12/10 11:06:41;;;;;;;24.83;4.57;;;;;;;9.45;91.81;100396.38;5011926;28;20037;-74
2023/12/10 11:09:07;;;;;;;35.78;5.70;;;;;;;9.63;91.74;100382.53;5014407;28;20034;-74
2023/12/10 11:11:39;;;;;;;29.95;4.13;;;;;;;9.64;91.69;100395.28;5015279;28;20412;-75
2023/12/10 11:14:19;;;;;;;32.75;6.78;;;;;;;9.71;91.44;100382.53;5013846;28;20050;-75
2023/12/10 11:17:07;;;;;;;30.58;4.75;;;;;;;9.67;91.06;100392.41;5017638;28;20042;-75
2023/12/10 11:19:33;;;;;;;32.28;3.85;;;;;;;9.73;89.88;100396.13;4992629;28;20041;-75
2023/12/10 11:21:59;;;;;;;28.65;3.63;;;;;;;9.79;89.59;100394.66;5014698;28;20396;-74